• Join FlightAware (Why Join?)
  • Login
  • US Flag 
01:33AM EDT


 

Airport Tracker/Info


-or-


 

Live Flight TrackerFlight Track Log ✈ CPT8773 ✈ 25-Sep-2013 ✈ KCPR - KCOD

Flight Track Log - Related Links

Times and Time Zones

All times are in EDT time to prevent confusion due to time zone crossing. See the CPT8773 flight status page for this flight to view local times or setup timezone preferences in your user account.

Time Position Orientation Groundspeed Altitude Reporting Facility
EDT Latitude Longitude Course Direction KTS MPH feet Rate Location/Type
09:41AM 42.9575 -106.5047 353° North 138 159 7,000  Level Salt Lake Center
09:42AM 42.9944 -106.5108 353° North 138 159 7,500 540 Climbing Salt Lake Center
09:43AM 43.0369 -106.5175 353° North 138 159 8,100 600 Climbing Salt Lake Center
09:44AM 43.0794 -106.5217 356° North 138 159 8,800 480 Climbing Denver Center
09:45AM 43.0760 -106.7207 307° West  Level Estimated
09:45AM 43.1147 -106.5244 357° North 136 157 9,200  Level Denver Center
09:46AM 43.1176 -106.7277 353° North  Level FlightAware Approximate
09:46AM 43.1542 -106.5306 354° North 132 152 9,800  Level Denver Center
09:47AM 43.1875 -106.5369 352° North 130 150 10,200 360 Climbing Denver Center
09:48AM 43.2203 -106.5467 348° North 128 147 10,600 360 Climbing Denver Center
09:49AM 43.2556 -106.5675 337° Northwest 129 148 11,000 240 Climbing Denver Center
09:50AM 43.2650 -106.6028 290° West 124 143 11,100 240 Climbing Denver Center
09:51AM 43.2892 -106.6481 306° West 130 150 11,600 360 Climbing Denver Center
09:52AM 43.3122 -106.6925 305° West 128 147 11,900 120 Climbing Denver Center
09:53AM 43.3322 -106.7306 306° West 130 150 11,900  Level Denver Center
09:54AM 43.3544 -106.7747 305° West 138 159 11,900  Level Salt Lake Center
09:55AM 43.3728 -106.8225 298° West 147 169 11,900  Level Salt Lake Center
09:56AM 43.4008 -106.8750 306° West 152 175 11,900  Level Salt Lake Center
09:57AM 43.4244 -106.9211 305° West 152 175 11,900  Level Salt Lake Center
09:58AM 43.4494 -106.9697 305° West 155 178 11,900  Level Salt Lake Center
09:59AM 43.4758 -107.0158 308° West 154 177 11,900  Level Salt Lake Center
10:00AM 43.5014 -107.0633 307° West 154 177 11,900  Level Salt Lake Center
10:01AM 43.5272 -107.1128 306° West 156 180 11,900 -60 Level Salt Lake Center
10:02AM 43.5572 -107.1722 305° West 157 181 11,800  Descending Salt Lake Center
10:03AM 43.5808 -107.2203 304° West 155 178 11,900  Climbing Salt Lake Center
10:04AM 43.6022 -107.2658 303° West 150 173 11,900  Level Salt Lake Center
10:05AM 43.6261 -107.3103 307° West 147 169 11,900  Level Salt Lake Center
10:06AM 43.6536 -107.3578 309° West 151 174 11,900  Level Salt Lake Center
10:07AM 43.6794 -107.4075 306° West 155 178 11,900  Level Salt Lake Center
10:08AM 43.7050 -107.4556 306° West 156 180 11,900  Level Salt Lake Center
10:09AM 43.7303 -107.5028 307° West 155 178 11,900  Level Salt Lake Center
10:10AM 43.7564 -107.5519 306° West 156 180 11,900  Level Salt Lake Center
10:11AM 43.7886 -107.6108 307° West 158 182 11,900  Level Salt Lake Center
10:12AM 43.8158 -107.6619 306° West 161 185 11,900  Level Salt Lake Center
10:13AM 43.8414 -107.7122 305° West 161 185 11,900  Level Salt Lake Center
10:14AM 43.8681 -107.7625 306° West 162 186 11,900  Level Salt Lake Center
10:15AM 43.8933 -107.8100 306° West 159 183 11,900  Level Salt Lake Center
10:16AM 43.9192 -107.8603 306° West 158 182 11,900  Level Salt Lake Center
10:17AM 43.9447 -107.9100 306° West 159 183 11,900  Level Salt Lake Center
10:18AM 43.9708 -107.9611 305° West 160 184 11,900  Level Salt Lake Center
10:20AM 44.0036 -108.0228 306° West 162 186 11,900  Level Salt Lake Center
10:21AM 44.0311 -108.0744 307° West 164 189 11,900  Level Salt Lake Center
10:22AM 44.0578 -108.1250 306° West 164 189 11,900  Level Salt Lake Center
10:23AM 44.0842 -108.1767 305° West 164 189 11,900  Level Salt Lake Center
10:24AM 44.1103 -108.2286 305° West 164 189 11,900  Level Salt Lake Center
10:25AM 44.1375 -108.2803 306° West 164 189 11,900  Level Salt Lake Center
10:26AM 44.1650 -108.3317 307° West 165 190 11,900  Level Salt Lake Center
10:27AM 44.1919 -108.3861 305° West 167 192 11,900  Level Salt Lake Center
10:28AM 44.2189 -108.4372 306° West 166 191 11,900  Level Salt Lake Center
10:29AM 44.2519 -108.4989 307° West 166 191 11,900  Level Salt Lake Center
10:30AM 44.2783 -108.5503 306° West 165 190 11,900 -60 Level Salt Lake Center
10:31AM 44.3033 -108.6000 305° West 162 186 11,800 -120 Descending Salt Lake Center